ěÝzenÝ letovÚho provozu ╚eskÚ republiky
Letiste: LKKB Aktualizace: 18.05.2022 00:29:31  UTC
 METAR LKKB 18.05. 00:30 ...
METAR LKKB 180030Z VRB02KT CAVOK 12/11 Q1023 RMK BLU=
 TAF LKKB 17.05. 23:00 ...
TAF LKKB 172300Z 1800/1900 VRB02KT CAVOK      PROB30 TEMPO 1800/1804 5000 BR      BECMG 1806/1808 10006KT      BECMG 1821/1823 VRB02KT=